sensor_id;sensor_type;location;lat;lon;timestamp;temperature;humidity
44069;DHT22;29738;51.234;5.484;2023-09-19T02:24:56;15.20;99.90
44069;DHT22;29738;51.234;5.484;2023-09-19T02:27:26;15.20;99.90
44069;DHT22;29738;51.234;5.484;2023-09-19T02:29:52;15.20;99.90
44069;DHT22;29738;51.234;5.484;2023-09-19T02:37:28;15.10;99.90
44069;DHT22;29738;51.234;5.484;2023-09-19T02:39:54;14.90;99.90
44069;DHT22;29738;51.234;5.484;2023-09-19T02:42:20;15.10;99.90
44069;DHT22;29738;51.234;5.484;2023-09-19T02:44:46;15.20;99.90
44069;DHT22;29738;51.234;5.484;2023-09-19T02:47:13;15.10;99.90
44069;DHT22;29738;51.234;5.484;2023-09-19T02:49:40;15.10;99.90
44069;DHT22;29738;51.234;5.484;2023-09-19T02:52:08;15.10;99.90
44069;DHT22;29738;51.234;5.484;2023-09-19T02:54:34;14.90;99.90
44069;DHT22;29738;51.234;5.484;2023-09-19T02:57:00;15.00;99.90
44069;DHT22;29738;51.234;5.484;2023-09-19T02:59:26;15.00;99.90
44069;DHT22;29738;51.234;5.484;2023-09-19T03:01:51;14.90;99.90
44069;DHT22;29738;51.234;5.484;2023-09-19T03:04:19;14.80;99.90
44069;DHT22;29738;51.234;5.484;2023-09-19T03:06:46;14.70;99.90
44069;DHT22;29738;51.234;5.484;2023-09-19T03:09:11;14.60;99.90
44069;DHT22;29738;51.234;5.484;2023-09-19T03:11:49;14.60;99.90
44069;DHT22;29738;51.234;5.484;2023-09-19T03:14:15;14.60;99.90
44069;DHT22;29738;51.234;5.484;2023-09-19T03:16:41;14.80;99.90
44069;DHT22;29738;51.234;5.484;2023-09-19T03:19:07;14.80;99.90
44069;DHT22;29738;51.234;5.484;2023-09-19T03:21:42;14.70;99.90
44069;DHT22;29738;51.234;5.484;2023-09-19T03:24:08;14.70;99.90
44069;DHT22;29738;51.234;5.484;2023-09-19T03:26:34;14.80;99.90
44069;DHT22;29738;51.234;5.484;2023-09-19T03:29:03;14.80;99.90
44069;DHT22;29738;51.234;5.484;2023-09-19T04:34:25;14.60;99.90
44069;DHT22;29738;51.234;5.484;2023-09-19T04:36:51;14.70;99.90
44069;DHT22;29738;51.234;5.484;2023-09-19T04:39:16;14.70;99.90
44069;DHT22;29738;51.234;5.484;2023-09-19T04:41:43;14.80;99.90
44069;DHT22;29738;51.234;5.484;2023-09-19T04:44:13;14.80;99.90
44069;DHT22;29738;51.234;5.484;2023-09-19T04:46:39;14.90;99.90
44069;DHT22;29738;51.234;5.484;2023-09-19T04:49:04;14.90;99.90
44069;DHT22;29738;51.234;5.484;2023-09-19T04:51:30;14.90;99.90
44069;DHT22;29738;51.234;5.484;2023-09-19T04:54:00;14.90;99.90
44069;DHT22;29738;51.234;5.484;2023-09-19T04:56:26;14.90;99.90
44069;DHT22;29738;51.234;5.484;2023-09-19T13:55:06;19.90;99.90
44069;DHT22;29738;51.234;5.484;2023-09-19T13:57:37;19.90;99.90
44069;DHT22;29738;51.234;5.484;2023-09-19T14:00:06;19.90;99.90
44069;DHT22;29738;51.234;5.484;2023-09-19T14:02:45;20.10;99.90
44069;DHT22;29738;51.234;5.484;2023-09-19T14:05:36;20.10;99.90
44069;DHT22;29738;51.234;5.484;2023-09-19T16:49:01;19.50;99.90
44069;DHT22;29738;51.234;5.484;2023-09-19T18:14:58;18.80;99.90
44069;DHT22;29738;51.234;5.484;2023-09-19T18:17:25;18.80;99.90
44069;DHT22;29738;51.234;5.484;2023-09-19T21:05:13;18.30;99.90
44069;DHT22;29738;51.234;5.484;2023-09-19T21:07:38;18.30;99.90
44069;DHT22;29738;51.234;5.484;2023-09-19T21:10:04;18.30;99.90
44069;DHT22;29738;51.234;5.484;2023-09-19T21:12:31;18.40;99.90
44069;DHT22;29738;51.234;5.484;2023-09-19T21:14:58;18.30;99.90
44069;DHT22;29738;51.234;5.484;2023-09-19T21:17:27;18.40;99.90
44069;DHT22;29738;51.234;5.484;2023-09-19T21:19:54;18.40;99.90
44069;DHT22;29738;51.234;5.484;2023-09-19T21:22:20;18.30;99.90
44069;DHT22;29738;51.234;5.484;2023-09-19T21:24:47;18.30;99.90
44069;DHT22;29738;51.234;5.484;2023-09-19T21:27:13;18.30;99.90
44069;DHT22;29738;51.234;5.484;2023-09-19T21:29:40;18.30;99.90
44069;DHT22;29738;51.234;5.484;2023-09-19T22:51:03;18.00;99.90
44069;DHT22;29738;51.234;5.484;2023-09-19T22:53:31;17.90;99.90
44069;DHT22;29738;51.234;5.484;2023-09-19T22:56:02;17.80;99.90
44069;DHT22;29738;51.234;5.484;2023-09-19T22:58:40;17.70;99.90
44069;DHT22;29738;51.234;5.484;2023-09-19T23:01:13;17.70;99.90
44069;DHT22;29738;51.234;5.484;2023-09-19T23:03:45;17.60;99.90
44069;DHT22;29738;51.234;5.484;2023-09-19T23:06:29;17.70;99.90
44069;DHT22;29738;51.234;5.484;2023-09-19T23:08:55;17.70;99.90
44069;DHT22;29738;51.234;5.484;2023-09-19T23:11:21;17.60;99.90
44069;DHT22;29738;51.234;5.484;2023-09-19T23:13:55;17.70;99.90
44069;DHT22;29738;51.234;5.484;2023-09-19T23:34:52;17.20;99.90
